Time;durP1;ratioP1;P1;durP2;ratioP2;P2;SDS_P1;SDS_P2;PMS_P1;PMS_P2;Temp;Humidity;BMP_temperature;BMP_pressure;BME280_temperature;BME280_humidity;BME280_pressure;Samples;Min_cycle;Max_cycle;Signal;HPM_P1;HPM_P2
2021/12/16 00:09:22;;;;;;;31.50;14.05;;;8.30;99.90;;;;;;5016414;28;20030;-51
2021/12/16 00:19:37;;;;;;;30.30;13.90;;;8.30;99.90;;;;;;5015125;28;20025;-52
2021/12/16 00:33:35;;;;;;;35.40;14.90;;;8.50;99.90;;;;;;5015789;28;20022;-55
2021/12/16 00:36:03;;;;;;;30.90;13.38;;;8.40;99.90;;;;;;5014995;28;20030;-53
2021/12/16 00:38:28;;;;;;;31.95;14.15;;;8.40;99.90;;;;;;5015696;28;20025;-52
2021/12/16 00:41:26;;;;;;;38.05;14.80;;;8.50;99.90;;;;;;5013983;28;20021;-51
2021/12/16 00:43:58;;;;;;;32.63;13.70;;;8.50;99.90;;;;;;5014063;28;20033;-50
2021/12/16 00:54:21;;;;;;;31.60;13.45;;;8.70;99.90;;;;;;5015620;28;20041;-54
2021/12/16 00:56:55;;;;;;;30.45;11.23;;;8.80;99.90;;;;;;5015007;28;20480;-49
2021/12/16 00:59:21;;;;;;;29.92;13.65;;;8.80;99.90;;;;;;5014981;28;20084;-51
2021/12/16 01:35:27;;;;;;;25.90;12.02;;;8.50;99.90;;;;;;5014681;28;20116;-55
2021/12/16 01:38:42;;;;;;;25.45;11.63;;;8.60;99.90;;;;;;5006904;28;20034;-54
2021/12/16 01:46:10;;;;;;;29.40;13.40;;;8.60;99.90;;;;;;5014486;28;20441;-52
2021/12/16 01:51:16;;;;;;;27.92;11.23;;;8.50;99.90;;;;;;5014418;28;20033;-51
2021/12/16 01:56:45;;;;;;;30.33;13.32;;;8.60;99.90;;;;;;5015936;28;20022;-51
2021/12/16 01:59:03;;;;;;;30.23;13.10;;;8.50;99.90;;;;;;5033404;28;20030;-49
2021/12/16 02:01:33;;;;;;;27.30;11.95;;;8.60;99.90;;;;;;5032444;28;20112;-53
2021/12/16 02:04:18;;;;;;;28.67;11.63;;;8.60;99.90;;;;;;5033950;28;20032;-54
2021/12/16 02:09:34;;;;;;;26.90;12.05;;;8.70;99.90;;;;;;5034032;28;20472;-51
2021/12/16 02:31:46;;;;;;;46.85;19.50;;;8.50;99.90;;;;;;5033929;28;20021;-55
2021/12/16 02:36:46;;;;;;;38.35;16.75;;;8.60;99.90;;;;;;5033293;28;20104;-53
2021/12/16 02:39:18;;;;;;;34.00;15.55;;;8.60;99.90;;;;;;5031976;28;20055;-53
2021/12/16 02:41:48;;;;;;;35.08;15.05;;;8.60;99.90;;;;;;5033765;28;20018;-51
2021/12/16 02:49:34;;;;;;;26.73;11.45;;;8.60;99.90;;;;;;5035123;28;20040;-54
2021/12/16 02:52:00;;;;;;;28.50;13.27;;;8.60;99.90;;;;;;5035970;28;20018;-53
2021/12/16 02:54:27;;;;;;;30.35;12.95;;;8.60;99.90;;;;;;5037004;28;20025;-53
2021/12/16 02:56:54;;;;;;;25.70;12.32;;;8.50;99.90;;;;;;5036649;28;20057;-52
2021/12/16 02:59:25;;;;;;;27.23;12.55;;;8.40;99.90;;;;;;5035771;28;20029;-52
2021/12/16 03:01:52;;;;;;;24.40;11.38;;;8.40;99.90;;;;;;5037538;28;20025;-48
2021/12/16 03:04:20;;;;;;;25.83;12.63;;;8.40;99.90;;;;;;5037007;28;20030;-50
2021/12/16 03:06:51;;;;;;;27.80;11.35;;;8.40;99.90;;;;;;5036909;28;20435;-53
2021/12/16 03:09:32;;;;;;;24.80;12.50;;;8.50;99.90;;;;;;5035712;28;20021;-49
2021/12/16 03:14:38;;;;;;;27.02;11.07;;;8.60;99.90;;;;;;5036974;28;20030;-48
2021/12/16 03:17:24;;;;;;;27.02;11.73;;;8.60;99.90;;;;;;5032470;28;20049;-50
2021/12/16 03:20:16;;;;;;;32.88;12.35;;;8.50;99.90;;;;;;5015703;28;20025;-54
2021/12/16 03:25:49;;;;;;;26.80;12.10;;;8.60;99.90;;;;;;5016876;28;20065;-50
2021/12/16 03:38:31;;;;;;;26.67;11.85;;;8.60;99.90;;;;;;5016632;28;19905;-50
2021/12/16 03:40:57;;;;;;;24.23;10.48;;;8.50;99.90;;;;;;5015561;28;20125;-51
2021/12/16 03:43:23;;;;;;;21.95;11.10;;;8.50;99.90;;;;;;5015484;28;20022;-50
2021/12/16 03:46:27;;;;;;;22.00;10.30;;;8.50;99.90;;;;;;5016852;28;20076;-53
2021/12/16 03:49:01;;;;;;;21.23;9.63;;;8.50;99.90;;;;;;5010932;28;20037;-50
2021/12/16 03:51:41;;;;;;;23.08;10.05;;;8.60;99.90;;;;;;5016329;28;20022;-50
2021/12/16 03:54:12;;;;;;;22.98;11.45;;;8.50;99.90;;;;;;5014872;28;20034;-50
2021/12/16 03:56:39;;;;;;;27.00;11.13;;;8.50;99.90;;;;;;5016172;28;20026;-52
2021/12/16 03:59:07;;;;;;;24.15;11.32;;;8.40;99.90;;;;;;5016159;28;20060;-52
2021/12/16 04:01:33;;;;;;;24.77;11.25;;;8.50;99.90;;;;;;5015432;28;20026;-54
2021/12/16 04:03:59;;;;;;;23.33;10.35;;;8.50;99.90;;;;;;5015985;28;20022;-52
2021/12/16 04:06:28;;;;;;;29.75;11.88;;;8.50;99.90;;;;;;5016055;28;20018;-53
2021/12/16 04:08:54;;;;;;;28.25;11.30;;;8.40;99.90;;;;;;5016050;28;20457;-49
2021/12/16 04:11:32;;;;;;;22.70;10.20;;;8.30;99.90;;;;;;5016031;28;20018;-52
2021/12/16 04:14:00;;;;;;;26.75;12.25;;;8.30;99.90;;;;;;5015529;28;20030;-50
2021/12/16 04:16:36;;;;;;;23.52;9.65;;;8.40;99.90;;;;;;5015785;28;20077;-50
2021/12/16 04:19:10;;;;;;;23.73;11.18;;;8.50;99.90;;;;;;5015843;28;20022;-52
2021/12/16 04:21:42;;;;;;;24.60;11.68;;;8.40;99.90;;;;;;5015436;28;20073;-48
2021/12/16 04:24:08;;;;;;;29.77;11.60;;;8.30;99.90;;;;;;5014400;28;20030;-51
2021/12/16 04:26:35;;;;;;;24.10;11.02;;;8.40;99.90;;;;;;5014380;28;20064;-51
2021/12/16 04:29:03;;;;;;;24.50;10.55;;;8.40;99.90;;;;;;5015958;28;20029;-52
2021/12/16 04:31:29;;;;;;;25.67;11.48;;;8.50;99.90;;;;;;5014367;28;20033;-51
2021/12/16 04:33:55;;;;;;;25.58;12.68;;;8.50;99.90;;;;;;5015545;28;20025;-50
2021/12/16 04:36:20;;;;;;;21.27;11.05;;;8.50;99.90;;;;;;5015755;28;20034;-50
2021/12/16 04:38:47;;;;;;;26.70;11.25;;;8.60;99.90;;;;;;5014186;28;20030;-52
2021/12/16 04:41:14;;;;;;;28.88;11.88;;;8.50;99.90;;;;;;5014154;28;20112;-52
2021/12/16 04:43:46;;;;;;;22.63;10.57;;;8.50;99.90;;;;;;5014145;28;20049;-51
2021/12/16 04:46:18;;;;;;;25.52;10.93;;;8.60;99.90;;;;;;5014056;28;20026;-54
2021/12/16 04:48:47;;;;;;;22.85;10.30;;;8.60;99.90;;;;;;5015485;28;20113;-52
2021/12/16 04:51:13;;;;;;;24.13;11.27;;;8.60;99.90;;;;;;5013966;28;20069;-51
2021/12/16 04:53:40;;;;;;;29.42;11.73;;;8.60;99.90;;;;;;5015411;28;20026;-54
2021/12/16 04:56:09;;;;;;;25.25;11.65;;;8.60;99.90;;;;;;5014119;28;20029;-52
2021/12/16 04:58:36;;;;;;;28.77;13.38;;;8.60;99.90;;;;;;5014022;28;20030;-50
2021/12/16 05:01:04;;;;;;;31.70;14.30;;;8.50;99.90;;;;;;5015063;28;20026;-53
2021/12/16 05:03:31;;;;;;;35.88;13.35;;;8.40;99.90;;;;;;5014776;28;20030;-52
2021/12/16 05:05:57;;;;;;;26.70;12.50;;;8.40;99.90;;;;;;5014863;28;20068;-49
2021/12/16 05:08:23;;;;;;;30.90;12.40;;;8.30;99.90;;;;;;5014762;28;20022;-53
2021/12/16 05:10:51;;;;;;;28.77;12.57;;;8.30;99.90;;;;;;5014857;28;20431;-52
2021/12/16 05:13:19;;;;;;;29.98;12.20;;;8.20;99.90;;;;;;5013060;28;20022;-53
2021/12/16 05:15:46;;;;;;;30.25;13.00;;;8.10;99.90;;;;;;5013705;28;20033;-51
2021/12/16 05:18:18;;;;;;;29.35;12.98;;;8.10;99.90;;;;;;5013804;28;20033;-51
2021/12/16 05:20:46;;;;;;;24.15;11.55;;;8.20;99.90;;;;;;5014749;28;20389;-49
2021/12/16 05:26:16;;;;;;;31.65;14.07;;;8.40;99.90;;;;;;5015194;28;20057;-53
2021/12/16 05:28:52;;;;;;;23.30;11.52;;;8.40;99.90;;;;;;5014836;28;20022;-52
2021/12/16 05:31:19;;;;;;;23.35;10.90;;;8.40;99.90;;;;;;5014568;28;20022;-51
2021/12/16 05:33:46;;;;;;;27.85;11.77;;;8.40;99.90;;;;;;5013477;28;20030;-52
2021/12/16 05:36:12;;;;;;;28.88;11.68;;;8.40;99.90;;;;;;5013498;28;20030;-53
2021/12/16 05:38:38;;;;;;;26.50;12.02;;;8.40;99.90;;;;;;5013134;28;20032;-51
2021/12/16 05:41:06;;;;;;;27.38;11.85;;;8.50;99.90;;;;;;5013110;28;20030;-48
2021/12/16 05:43:32;;;;;;;27.67;13.02;;;8.50;99.90;;;;;;5013081;28;20037;-50
2021/12/16 05:45:58;;;;;;;26.25;11.95;;;8.50;99.90;;;;;;5014207;28;20053;-53
2021/12/16 05:48:28;;;;;;;29.50;12.75;;;8.50;99.90;;;;;;5014133;28;20045;-51
2021/12/16 05:50:58;;;;;;;33.28;12.48;;;8.40;99.90;;;;;;5014493;28;20056;-52
2021/12/16 05:53:25;;;;;;;33.58;12.95;;;8.40;99.90;;;;;;5013624;28;20068;-49
2021/12/16 05:55:51;;;;;;;23.45;11.60;;;8.40;99.90;;;;;;5012800;28;20046;-51
2021/12/16 05:58:19;;;;;;;26.08;11.73;;;8.30;99.90;;;;;;5014093;28;20076;-50
2021/12/16 06:00:48;;;;;;;29.48;13.13;;;8.40;99.90;;;;;;5014022;28;20028;-52
2021/12/16 06:03:15;;;;;;;25.45;11.52;;;8.40;99.90;;;;;;5012930;28;20068;-50
2021/12/16 06:05:41;;;;;;;26.48;12.43;;;8.40;99.90;;;;;;5012665;28;20026;-51
2021/12/16 06:08:10;;;;;;;25.67;12.07;;;8.40;99.90;;;;;;5014170;28;20018;-48
2021/12/16 06:11:13;;;;;;;25.80;12.32;;;8.40;99.90;;;;;;5012616;28;20022;-51
2021/12/16 06:13:44;;;;;;;24.20;11.25;;;8.40;99.90;;;;;;5015365;28;20420;-51
2021/12/16 06:27:27;;;;;;;24.83;10.80;;;7.80;99.90;;;;;;5014472;28;20099;-50
2021/12/16 06:29:53;;;;;;;25.38;12.65;;;7.70;99.90;;;;;;5012615;28;20038;-50
2021/12/16 06:32:19;;;;;;;28.60;11.38;;;7.50;99.90;;;;;;5012614;28;20026;-50
2021/12/16 06:34:46;;;;;;;28.75;12.07;;;7.50;99.90;;;;;;5012836;28;20080;-52
2021/12/16 06:37:12;;;;;;;28.25;12.15;;;7.50;99.90;;;;;;5012428;28;20118;-56
2021/12/16 06:39:38;;;;;;;29.35;12.45;;;7.50;99.90;;;;;;5013493;28;20378;-56
2021/12/16 06:42:06;;;;;;;37.35;15.52;;;7.40;99.90;;;;;;5013052;28;20033;-58
2021/12/16 06:44:39;;;;;;;29.20;13.73;;;7.40;99.90;;;;;;5012384;28;20068;-56
2021/12/16 06:47:11;;;;;;;33.25;13.57;;;7.40;99.90;;;;;;5013699;28;20030;-57
2021/12/16 06:49:40;;;;;;;29.67;13.48;;;7.40;99.90;;;;;;5013013;28;20026;-56
2021/12/16 06:52:07;;;;;;;35.90;16.20;;;7.30;99.90;;;;;;5012559;28;20022;-57
2021/12/16 06:57:35;;;;;;;28.33;12.43;;;7.20;99.90;;;;;;5009684;28;20392;-57
2021/12/16 07:00:11;;;;;;;26.52;12.90;;;7.10;99.90;;;;;;5012147;28;20032;-56
2021/12/16 07:02:48;;;;;;;29.42;12.88;;;7.10;99.90;;;;;;5011797;28;20033;-57
2021/12/16 07:05:18;;;;;;;28.17;13.02;;;7.10;99.90;;;;;;5011933;28;20101;-58
2021/12/16 07:07:45;;;;;;;33.35;13.25;;;7.10;99.90;;;;;;5011962;28;20018;-55
2021/12/16 07:10:12;;;;;;;28.15;12.68;;;7.10;99.90;;;;;;5011882;28;20025;-58
2021/12/16 07:12:40;;;;;;;32.03;13.55;;;7.10;99.90;;;;;;5012782;28;20061;-57
2021/12/16 07:15:14;;;;;;;30.95;12.40;;;7.20;99.90;;;;;;5011911;28;20025;-55
2021/12/16 07:17:41;;;;;;;28.58;13.20;;;7.20;99.90;;;;;;5013205;28;20022;-56
2021/12/16 07:20:10;;;;;;;25.92;11.50;;;7.30;99.90;;;;;;5012252;28;20029;-58
2021/12/16 07:22:36;;;;;;;32.17;12.50;;;7.40;99.90;;;;;;5013109;28;20057;-57
2021/12/16 07:25:07;;;;;;;32.58;12.43;;;7.50;99.90;;;;;;5013283;28;20050;-57
2021/12/16 07:27:34;;;;;;;24.67;11.90;;;7.60;99.90;;;;;;5013063;28;20071;-58
2021/12/16 07:30:01;;;;;;;26.95;13.02;;;7.60;99.90;;;;;;5013346;28;20088;-56
2021/12/16 07:32:27;;;;;;;28.77;11.95;;;7.50;99.90;;;;;;5013012;28;20022;-58
2021/12/16 07:34:52;;;;;;;24.75;11.82;;;7.50;99.90;;;;;;5012194;28;20028;-58
2021/12/16 07:37:18;;;;;;;22.08;11.40;;;7.40;99.90;;;;;;5015353;28;20032;-58
2021/12/16 07:39:45;;;;;;;31.55;12.90;;;7.50;99.90;;;;;;5015852;28;20104;-58
2021/12/16 07:42:14;;;;;;;29.40;13.88;;;7.40;99.90;;;;;;5032534;28;20022;-58
2021/12/16 07:44:40;;;;;;;31.35;13.20;;;7.40;99.90;;;;;;5015847;28;20022;-57
2021/12/16 07:47:09;;;;;;;30.88;13.50;;;7.30;99.90;;;;;;5015254;28;20021;-57
2021/12/16 07:49:44;;;;;;;29.13;13.23;;;7.20;99.90;;;;;;5014742;28;20062;-58
2021/12/16 07:52:14;;;;;;;29.20;13.02;;;7.30;99.90;;;;;;5015282;28;20022;-59
2021/12/16 07:54:40;;;;;;;30.92;12.20;;;7.20;99.90;;;;;;5016458;28;20026;-58
2021/12/16 07:57:06;;;;;;;23.05;10.55;;;7.30;99.90;;;;;;5016757;28;20029;-58
2021/12/16 07:59:33;;;;;;;28.67;12.15;;;7.20;99.90;;;;;;5015220;28;20030;-58
2021/12/16 08:02:00;;;;;;;23.10;11.23;;;7.40;99.90;;;;;;5015943;28;20030;-58
2021/12/16 08:04:30;;;;;;;21.65;11.50;;;7.50;99.90;;;;;;5016002;28;20022;-58
2021/12/16 08:07:00;;;;;;;26.15;11.00;;;7.60;99.90;;;;;;5014834;28;20025;-58
2021/12/16 08:09:26;;;;;;;20.77;10.60;;;7.70;99.90;;;;;;5015962;28;20018;-58
2021/12/16 08:11:52;;;;;;;20.65;11.63;;;8.00;99.90;;;;;;5015918;28;20022;-58
2021/12/16 08:14:19;;;;;;;23.05;10.38;;;8.20;99.90;;;;;;5014750;28;20033;-57
2021/12/16 08:16:45;;;;;;;20.38;9.52;;;8.70;99.90;;;;;;5028257;28;20025;-57
2021/12/16 08:19:11;;;;;;;23.30;10.30;;;9.00;99.90;;;;;;5034356;28;20033;-56
2021/12/16 08:21:38;;;;;;;22.20;10.05;;;9.00;99.90;;;;;;5035647;28;20101;-54
2021/12/16 08:24:07;;;;;;;24.77;10.63;;;9.00;99.90;;;;;;5035560;28;20022;-58
2021/12/16 08:26:35;;;;;;;23.23;10.57;;;9.00;99.90;;;;;;5034543;28;20053;-56
2021/12/16 08:29:01;;;;;;;22.20;11.73;;;9.00;99.90;;;;;;5035809;28;20037;-58
2021/12/16 08:31:27;;;;;;;27.25;12.00;;;9.00;99.90;;;;;;5034097;28;20087;-59
2021/12/16 08:33:53;;;;;;;28.90;11.20;;;9.00;99.90;;;;;;5034057;28;20057;-56
2021/12/16 08:36:56;;;;;;;22.20;11.07;;;9.20;99.90;;;;;;5035252;28;20053;-58
2021/12/16 08:39:23;;;;;;;28.23;10.85;;;9.30;99.90;;;;;;5035420;28;20025;-58
2021/12/16 08:41:53;;;;;;;24.48;12.82;;;9.50;99.90;;;;;;5035219;28;20049;-57
2021/12/16 08:44:20;;;;;;;21.98;11.43;;;9.50;99.90;;;;;;5035009;28;20021;-57
2021/12/16 08:46:49;;;;;;;23.10;11.70;;;9.60;99.90;;;;;;5033008;28;20018;-57
2021/12/16 08:49:16;;;;;;;23.73;12.18;;;9.50;99.90;;;;;;5034617;28;20034;-58
2021/12/16 08:51:48;;;;;;;22.15;11.40;;;9.60;99.90;;;;;;5034983;28;20472;-58
2021/12/16 08:54:14;;;;;;;22.75;11.50;;;9.40;99.90;;;;;;5034932;28;20026;-58
2021/12/16 08:56:40;;;;;;;24.80;10.98;;;9.40;99.90;;;;;;5033011;28;20384;-57
2021/12/16 08:59:07;;;;;;;26.33;11.73;;;9.50;99.90;;;;;;5034994;28;20034;-57
2021/12/16 09:01:39;;;;;;;25.92;11.20;;;9.60;99.90;;;;;;5032618;28;20128;-59
2021/12/16 09:04:09;;;;;;;24.45;11.55;;;9.60;99.90;;;;;;5019107;28;20477;-56
2021/12/16 09:06:44;;;;;;;21.00;11.48;;;9.60;99.90;;;;;;5013254;28;20018;-57
2021/12/16 09:09:10;;;;;;;25.58;11.50;;;9.50;99.90;;;;;;5033598;28;20021;-58
2021/12/16 09:11:45;;;;;;;24.35;10.85;;;9.60;99.90;;;;;;5033451;28;20032;-55
2021/12/16 09:14:11;;;;;;;30.63;11.77;;;9.60;99.90;;;;;;5034558;28;20032;-58
2021/12/16 09:16:41;;;;;;;41.47;13.43;;;9.40;99.90;;;;;;5034379;28;20084;-58
2021/12/16 09:19:07;;;;;;;31.17;13.15;;;9.20;99.90;;;;;;5033612;28;20021;-55
2021/12/16 09:21:36;;;;;;;35.88;14.43;;;9.10;99.90;;;;;;5033007;28;20095;-55
2021/12/16 09:24:08;;;;;;;31.13;14.18;;;8.90;99.90;;;;;;5022776;28;20057;-56
2021/12/16 09:26:39;;;;;;;27.70;13.88;;;8.70;99.90;;;;;;5014809;28;20049;-58
2021/12/16 09:29:13;;;;;;;27.30;13.37;;;8.60;99.90;;;;;;5033942;28;20049;-54
2021/12/16 09:31:42;;;;;;;28.27;13.02;;;8.50;99.90;;;;;;5013114;28;20052;-56
2021/12/16 09:34:13;;;;;;;29.83;13.50;;;8.50;99.90;;;;;;5014330;28;20028;-58
2021/12/16 09:39:50;;;;;;;31.15;13.10;;;8.70;99.90;;;;;;5012453;28;20065;-56
2021/12/16 09:42:21;;;;;;;34.97;13.52;;;8.80;99.90;;;;;;5013509;28;20033;-57
2021/12/16 09:44:54;;;;;;;30.23;13.77;;;8.80;99.90;;;;;;5014695;28;20037;-59
2021/12/16 09:47:37;;;;;;;29.90;14.70;;;8.90;99.90;;;;;;5013542;28;20034;-57
2021/12/16 09:50:23;;;;;;;29.45;14.43;;;8.80;99.90;;;;;;5013329;28;20058;-59
2021/12/16 09:53:03;;;;;;;26.80;12.60;;;8.90;99.90;;;;;;5014727;28;20028;-58
2021/12/16 09:59:07;;;;;;;33.47;15.02;;;9.10;99.90;;;;;;5014422;28;20056;-58
2021/12/16 10:01:39;;;;;;;30.65;13.77;;;9.20;99.90;;;;;;5014610;28;20053;-57
2021/12/16 10:04:13;;;;;;;29.23;13.63;;;9.30;99.90;;;;;;5014340;28;20026;-59
2021/12/16 10:06:44;;;;;;;27.95;13.63;;;9.50;99.90;;;;;;5013816;28;20052;-58
2021/12/16 10:09:16;;;;;;;26.73;12.57;;;9.50;99.90;;;;;;5013602;28;20018;-59
2021/12/16 10:11:54;;;;;;;30.25;12.63;;;9.70;99.90;;;;;;5013286;28;20052;-60
2021/12/16 10:20:01;;;;;;;24.25;11.65;;;9.80;99.90;;;;;;5014338;28;20388;-60
2021/12/16 10:22:42;;;;;;;22.77;11.55;;;9.90;99.90;;;;;;5013780;28;20029;-58
2021/12/16 10:25:50;;;;;;;26.27;13.18;;;10.00;99.90;;;;;;5012353;28;20037;-57
2021/12/16 10:28:26;;;;;;;28.33;12.32;;;10.00;99.90;;;;;;5013829;28;20026;-55
2021/12/16 10:31:11;;;;;;;35.10;14.20;;;10.00;99.90;;;;;;5013568;28;20029;-59
2021/12/16 10:33:56;;;;;;;28.20;12.63;;;10.10;99.90;;;;;;5015179;28;20026;-58
2021/12/16 10:36:32;;;;;;;28.08;13.05;;;10.10;99.90;;;;;;5015084;28;20113;-59
2021/12/16 10:39:26;;;;;;;26.20;12.43;;;10.10;99.90;;;;;;5022146;28;20493;-56
2021/12/16 10:42:17;;;;;;;28.38;12.80;;;10.10;99.90;;;;;;5019480;28;20028;-60
2021/12/16 10:44:51;;;;;;;32.67;13.25;;;10.10;99.90;;;;;;5022333;28;20033;-56
2021/12/16 10:47:23;;;;;;;30.55;12.45;;;10.20;99.90;;;;;;5031944;28;20021;-57
2021/12/16 10:49:57;;;;;;;27.08;13.02;;;10.20;99.90;;;;;;5033170;28;20037;-59
2021/12/16 10:52:32;;;;;;;27.73;12.65;;;10.30;99.90;;;;;;5025612;28;20030;-59
2021/12/16 10:55:03;;;;;;;25.30;12.38;;;10.50;99.90;;;;;;5015494;28;20056;-59
2021/12/16 10:57:41;;;;;;;24.58;10.95;;;10.60;99.90;;;;;;5017909;28;20030;-59
2021/12/16 11:00:18;;;;;;;36.90;12.63;;;10.60;99.90;;;;;;5018085;28;20030;-59
2021/12/16 11:02:50;;;;;;;28.70;13.25;;;10.60;99.90;;;;;;5032097;28;20425;-56
2021/12/16 11:05:27;;;;;;;24.35;11.65;;;10.50;99.90;;;;;;5032118;28;20025;-57
2021/12/16 11:08:01;;;;;;;28.15;13.68;;;10.50;99.90;;;;;;5021789;28;20450;-57
2021/12/16 11:10:42;;;;;;;25.23;12.77;;;10.60;99.90;;;;;;5034961;28;20026;-58
2021/12/16 11:13:14;;;;;;;26.57;12.33;;;10.60;99.90;;;;;;5037311;28;20029;-56
2021/12/16 11:15:48;;;;;;;32.35;12.43;;;10.60;99.90;;;;;;5037036;28;20391;-59
2021/12/16 11:18:33;;;;;;;25.70;11.63;;;10.60;99.90;;;;;;5050865;28;20053;-58
2021/12/16 11:21:04;;;;;;;31.63;13.55;;;10.50;99.90;;;;;;5057120;28;20086;-57
2021/12/16 11:23:41;;;;;;;25.52;12.48;;;10.50;99.90;;;;;;5058249;28;20032;-58
2021/12/16 11:26:20;;;;;;;27.85;13.18;;;10.50;99.90;;;;;;5052081;28;20029;-58
2021/12/16 11:28:58;;;;;;;28.95;13.85;;;10.60;99.90;;;;;;5034110;28;20110;-59
2021/12/16 11:31:48;;;;;;;33.30;13.98;;;10.50;99.90;;;;;;5017996;28;20030;-58
2021/12/16 11:34:34;;;;;;;25.63;13.10;;;10.40;99.90;;;;;;5019505;28;20018;-59
2021/12/16 11:37:05;;;;;;;26.95;12.98;;;10.40;99.90;;;;;;5019128;28;20025;-59
2021/12/16 11:39:40;;;;;;;26.88;13.50;;;10.40;99.90;;;;;;5028932;28;20028;-58
2021/12/16 11:42:20;;;;;;;29.33;12.20;;;10.40;99.90;;;;;;5046705;28;20060;-59
2021/12/16 11:44:56;;;;;;;29.60;13.50;;;10.50;99.90;;;;;;5037954;28;20029;-59
2021/12/16 11:47:28;;;;;;;30.30;15.02;;;10.70;99.90;;;;;;5037548;28;20029;-60
2021/12/16 11:50:10;;;;;;;35.63;15.80;;;10.70;99.90;;;;;;5038258;28;20044;-60
2021/12/16 11:52:40;;;;;;;29.52;14.05;;;10.60;99.90;;;;;;5038435;28;20033;-57
2021/12/16 11:55:20;;;;;;;27.40;11.60;;;10.70;99.90;;;;;;5031151;28;20034;-60
2021/12/16 11:57:52;;;;;;;30.15;14.40;;;10.90;99.90;;;;;;5033032;28;20033;-60
2021/12/16 12:00:32;;;;;;;33.28;14.65;;;10.80;99.90;;;;;;5036334;28;20021;-60
2021/12/16 12:03:11;;;;;;;30.90;15.65;;;10.70;99.90;;;;;;5036292;28;20136;-59
2021/12/16 12:05:51;;;;;;;31.17;14.65;;;10.70;99.90;;;;;;5037307;28;20017;-60
2021/12/16 12:08:31;;;;;;;42.08;16.90;;;10.60;99.90;;;;;;5017715;28;20172;-59
2021/12/16 12:11:24;;;;;;;32.97;15.27;;;10.50;99.90;;;;;;5018811;28;20063;-59
2021/12/16 12:14:07;;;;;;;40.22;16.67;;;10.60;99.90;;;;;;5035405;28;20049;-59
2021/12/16 12:17:12;;;;;;;37.35;15.05;;;10.70;99.90;;;;;;5037581;28;20029;-59
2021/12/16 12:20:07;;;;;;;34.80;14.70;;;10.70;99.90;;;;;;5035841;28;20480;-60
2021/12/16 12:22:41;;;;;;;33.20;14.52;;;10.70;99.90;;;;;;5024668;28;20034;-59
2021/12/16 12:25:15;;;;;;;30.38;15.20;;;10.70;99.90;;;;;;5031744;28;20021;-60
2021/12/16 12:27:46;;;;;;;38.78;16.17;;;10.80;99.90;;;;;;5037218;28;20022;-60
2021/12/16 12:30:18;;;;;;;36.88;17.58;;;10.80;99.90;;;;;;5036069;28;20022;-60
2021/12/16 12:32:51;;;;;;;36.83;15.95;;;10.80;99.90;;;;;;5037259;28;20527;-60
2021/12/16 12:35:31;;;;;;;31.08;15.10;;;11.00;99.90;;;;;;5036613;28;20034;-59
2021/12/16 12:38:04;;;;;;;27.77;14.35;;;11.10;99.90;;;;;;5037010;28;20025;-60
2021/12/16 12:40:41;;;;;;;27.35;14.00;;;11.20;99.90;;;;;;5036340;28;20033;-60
2021/12/16 12:43:09;;;;;;;29.63;14.00;;;11.30;99.90;;;;;;5037577;28;20464;-60
2021/12/16 12:45:37;;;;;;;34.47;15.02;;;11.30;99.90;;;;;;5040135;28;20022;-50
2021/12/16 12:48:16;;;;;;;40.60;18.00;;;11.40;99.90;;;;;;5037444;28;20029;-53
2021/12/16 12:50:44;;;;;;;67.60;21.48;;;11.30;99.90;;;;;;5035099;28;20063;-55
2021/12/16 12:53:13;;;;;;;44.85;18.35;;;11.20;99.90;;;;;;5033926;28;20036;-52
2021/12/16 12:55:39;;;;;;;42.83;16.42;;;11.00;99.90;;;;;;5033734;28;20040;-52
2021/12/16 12:58:09;;;;;;;34.30;15.02;;;11.00;99.90;;;;;;5036453;28;20025;-56
2021/12/16 13:00:43;;;;;;;31.13;13.70;;;10.70;99.90;;;;;;5034624;28;20025;-59
2021/12/16 13:03:21;;;;;;;35.20;14.43;;;10.40;99.90;;;;;;5036192;28;20036;-58
2021/12/16 13:06:14;;;;;;;34.63;15.63;;;10.40;99.90;;;;;;5036041;28;20029;-59
2021/12/16 13:08:43;;;;;;;31.38;14.23;;;10.30;99.90;;;;;;5024309;28;20033;-59
2021/12/16 13:11:29;;;;;;;35.83;15.23;;;10.20;99.90;;;;;;5035958;28;20029;-59
2021/12/16 13:14:20;;;;;;;27.73;13.73;;;10.30;99.90;;;;;;5034369;28;20048;-59
2021/12/16 13:17:04;;;;;;;30.08;14.73;;;10.30;99.90;;;;;;5035251;28;20029;-59
2021/12/16 13:28:19;;;;;;;27.10;13.63;;;10.30;99.90;;;;;;4955540;29;20028;-59
2021/12/16 13:30:55;;;;;;;30.08;15.02;;;10.30;99.90;;;;;;4993552;28;20041;-59
2021/12/16 13:33:26;;;;;;;32.25;13.68;;;10.20;99.90;;;;;;5015418;28;20022;-59
2021/12/16 13:36:14;;;;;;;25.92;12.35;;;10.20;99.90;;;;;;5020481;28;20041;-59
2021/12/16 13:38:44;;;;;;;30.50;12.95;;;10.10;99.90;;;;;;5034089;28;20037;-59
2021/12/16 13:41:17;;;;;;;30.85;13.85;;;9.90;99.90;;;;;;5035130;28;20022;-60
2021/12/16 13:44:10;;;;;;;35.15;14.98;;;9.90;99.90;;;;;;5033943;28;20021;-59
2021/12/16 13:47:04;;;;;;;36.95;15.55;;;9.80;99.90;;;;;;5034288;28;20080;-59
2021/12/16 14:03:50;;;;;;;27.70;13.82;;;9.60;99.90;;;;;;5034455;28;20028;-57
2021/12/16 14:06:39;;;;;;;30.73;14.52;;;9.60;99.90;;;;;;5022691;28;20018;-59
2021/12/16 14:09:24;;;;;;;31.73;14.30;;;9.80;99.90;;;;;;5028795;28;20029;-59
2021/12/16 14:12:56;;;;;;;32.40;14.98;;;9.70;99.90;;;;;;5015460;28;20018;-57
2021/12/16 14:14:48;;;;;;;33.28;14.32;;;9.60;99.90;;;;;;5017542;28;20108;-58
2021/12/16 14:17:47;;;;;;;29.23;13.73;;;9.60;99.90;;;;;;5034041;28;20048;-57
2021/12/16 14:25:40;;;;;;;32.25;15.55;;;9.70;99.90;;;;;;5033787;28;19955;-57
2021/12/16 14:49:43;;;;;;;33.20;14.43;;;10.00;99.90;;;;;;5037360;28;20399;-59
2021/12/16 14:52:22;;;;;;;29.55;14.38;;;10.10;99.90;;;;;;5036112;28;20022;-58
2021/12/16 14:55:00;;;;;;;29.13;14.85;;;10.00;99.90;;;;;;5037521;28;20080;-56
2021/12/16 14:57:32;;;;;;;31.45;14.55;;;9.90;99.90;;;;;;5036038;28;20030;-60
2021/12/16 15:00:10;;;;;;;59.90;23.75;;;9.80;99.90;;;;;;5032576;28;20053;-58
2021/12/16 15:02:38;;;;;;;37.90;17.58;;;9.80;99.90;;;;;;5022065;28;20033;-51
2021/12/16 15:05:21;;;;;;;28.00;14.68;;;9.70;99.90;;;;;;5017493;28;20045;-58
2021/12/16 15:07:46;;;;;;;32.40;15.77;;;9.70;99.90;;;;;;5017808;28;20387;-58
2021/12/16 15:10:14;;;;;;;34.38;15.77;;;9.80;99.90;;;;;;5017584;28;20018;-54
2021/12/16 15:12:52;;;;;;;29.13;14.45;;;9.80;99.90;;;;;;5017628;28;20495;-57
2021/12/16 15:38:39;;;;;;;31.83;14.50;;;9.70;99.90;;;;;;5017182;28;20018;-60
2021/12/16 15:44:22;;;;;;;29.05;14.85;;;9.80;99.90;;;;;;5017273;28;20045;-60
2021/12/16 15:46:50;;;;;;;37.38;14.13;;;9.80;99.90;;;;;;5016738;28;20100;-58
2021/12/16 15:49:15;;;;;;;35.65;16.63;;;9.80;99.90;;;;;;5015491;28;20038;-58
2021/12/16 15:51:41;;;;;;;37.58;16.80;;;9.90;99.90;;;;;;5015783;28;20034;-58
2021/12/16 15:54:10;;;;;;;32.88;15.95;;;9.80;99.90;;;;;;5024209;28;20029;-57
2021/12/16 15:56:39;;;;;;;30.13;15.20;;;9.80;99.90;;;;;;5017912;28;20021;-54
2021/12/16 15:59:12;;;;;;;33.78;15.38;;;9.80;99.90;;;;;;5015374;28;20018;-59
2021/12/16 16:01:51;;;;;;;34.90;16.38;;;9.80;99.90;;;;;;5023753;28;20026;-54
2021/12/16 16:04:21;;;;;;;38.45;17.75;;;9.80;99.90;;;;;;5039079;28;20025;-58
2021/12/16 16:06:52;;;;;;;35.97;18.13;;;9.70;99.90;;;;;;5055561;28;20106;-58
2021/12/16 16:09:52;;;;;;;;;;;9.70;99.90;;;;;;5049008;28;20117;-59
2021/12/16 16:12:23;;;;;;;30.58;15.98;;;9.70;99.90;;;;;;5036259;28;19928;-58
2021/12/16 16:15:16;;;;;;;36.70;17.17;;;9.80;99.90;;;;;;5035587;28;20025;-59
2021/12/16 16:18:11;;;;;;;33.70;16.13;;;9.80;99.90;;;;;;5034795;28;20116;-59
2021/12/16 16:20:37;;;;;;;41.05;20.85;;;9.80;99.90;;;;;;5014892;28;20065;-59
2021/12/16 16:23:06;;;;;;;44.58;20.70;;;9.70;99.90;;;;;;5027134;28;20021;-59
2021/12/16 16:25:32;;;;;;;37.40;20.23;;;9.70;99.90;;;;;;5034657;28;20427;-56
2021/12/16 16:28:01;;;;;;;39.95;18.52;;;9.70;99.90;;;;;;5034106;28;20021;-57
2021/12/16 16:30:27;;;;;;;38.15;19.10;;;9.70;99.90;;;;;;5022128;28;20017;-58
2021/12/16 16:33:08;;;;;;;41.20;19.23;;;9.70;99.90;;;;;;5034460;28;20018;-56
2021/12/16 16:35:48;;;;;;;71.85;29.90;;;9.70;99.90;;;;;;5015385;28;20029;-58
2021/12/16 16:38:30;;;;;;;43.08;17.90;;;9.70;99.90;;;;;;5031244;28;20106;-56
2021/12/16 16:40:58;;;;;;;37.05;17.27;;;9.80;99.90;;;;;;5031427;28;20030;-56
2021/12/16 16:43:37;;;;;;;46.38;19.05;;;9.70;99.90;;;;;;5015737;28;20030;-58
2021/12/16 16:46:17;;;;;;;47.47;20.50;;;9.70;99.90;;;;;;5032442;28;20018;-59
2021/12/16 16:51:26;;;;;;;38.67;18.75;;;9.80;99.90;;;;;;5018805;28;20030;-58
2021/12/16 16:53:59;;;;;;;43.90;20.85;;;9.80;99.90;;;;;;5017093;28;20030;-59
2021/12/16 16:56:39;;;;;;;44.15;20.92;;;9.80;99.90;;;;;;5017228;28;20029;-58
2021/12/16 16:59:07;;;;;;;40.88;18.98;;;9.90;99.90;;;;;;5016783;28;20029;-57